createdAt,value
2018-03-24T00:00:34.619Z,6.58
2018-03-24T00:03:02.441Z,6.52
2018-03-24T00:05:29.967Z,6.45
2018-03-24T00:07:57.596Z,6.43
2018-03-24T00:10:25.138Z,6.45
2018-03-24T00:12:52.653Z,6.46
2018-03-24T00:15:20.401Z,6.38
2018-03-24T00:17:47.913Z,6.34
2018-03-24T00:20:15.449Z,6.28
2018-03-24T00:22:42.989Z,6.22
2018-03-24T00:25:10.522Z,6.19
2018-03-24T00:27:38.094Z,6.10
2018-03-24T00:30:05.628Z,6.06
2018-03-24T00:32:33.136Z,5.94
2018-03-24T00:35:00.673Z,5.92
2018-03-24T00:37:28.185Z,5.81
2018-03-24T00:39:55.901Z,5.74
2018-03-24T00:42:23.409Z,5.78
2018-03-24T00:44:50.921Z,5.78
2018-03-24T00:47:18.526Z,5.72
2018-03-24T00:49:46.046Z,5.72
2018-03-24T00:52:13.590Z,5.72
2018-03-24T00:54:41.127Z,5.70
2018-03-24T00:57:08.661Z,5.64
2018-03-24T00:59:36.205Z,5.71
2018-03-24T01:02:03.742Z,5.69
2018-03-24T01:04:31.698Z,5.63
2018-03-24T01:06:59.209Z,5.61
2018-03-24T01:09:26.721Z,5.57
2018-03-24T01:11:54.270Z,5.41
2018-03-24T01:14:21.801Z,5.33
2018-03-24T01:16:49.367Z,5.32
2018-03-24T01:19:16.881Z,5.26
2018-03-24T01:21:44.398Z,5.24
2018-03-24T01:24:11.929Z,5.26
2018-03-24T01:26:39.452Z,5.27
2018-03-24T01:29:07.300Z,5.32
2018-03-24T01:31:34.814Z,5.35
2018-03-24T01:34:02.334Z,5.42
2018-03-24T01:36:29.883Z,5.51
2018-03-24T01:38:57.862Z,5.48
2018-03-24T01:41:25.601Z,5.54
2018-03-24T01:43:53.131Z,5.62
2018-03-24T01:46:20.654Z,5.55
2018-03-24T01:48:48.194Z,5.60
2018-03-24T01:51:15.725Z,5.59
2018-03-24T01:53:53.100Z,5.61
2018-03-24T01:56:21.632Z,5.67
2018-03-24T01:58:49.156Z,5.66
2018-03-24T02:01:16.714Z,5.64
2018-03-24T02:03:44.230Z,5.59
2018-03-24T02:06:11.792Z,5.57
2018-03-24T02:08:39.313Z,5.60
2018-03-24T02:11:06.835Z,5.38
2018-03-24T02:13:34.374Z,5.37
2018-03-24T02:16:01.891Z,5.40
2018-03-24T02:18:29.640Z,5.33
2018-03-24T02:20:57.549Z,5.23
2018-03-24T02:23:25.060Z,5.21
2018-03-24T02:25:52.611Z,5.20
2018-03-24T02:28:20.131Z,5.14
2018-03-24T02:30:47.850Z,5.15
2018-03-24T02:33:15.367Z,5.15
2018-03-24T02:35:42.890Z,5.01
2018-03-24T02:38:10.430Z,4.90
2018-03-24T02:40:37.972Z,4.85
2018-03-24T02:43:05.528Z,4.74
2018-03-24T02:45:33.058Z,4.73
2018-03-24T02:48:00.573Z,4.67
2018-03-24T02:50:28.123Z,4.72
2018-03-24T02:52:56.621Z,4.77
2018-03-24T02:55:24.569Z,4.51
2018-03-24T02:57:52.091Z,4.56
2018-03-24T03:00:19.606Z,4.49
2018-03-24T03:02:47.150Z,4.40
2018-03-24T03:05:14.669Z,4.37
2018-03-24T03:07:42.470Z,4.33
2018-03-24T03:10:09.986Z,4.33
2018-03-24T03:12:37.506Z,4.29
2018-03-24T03:15:05.051Z,4.23
2018-03-24T03:17:33.545Z,4.20
2018-03-24T03:20:01.097Z,4.14
2018-03-24T03:22:28.611Z,4.06
2018-03-24T03:24:56.129Z,3.93
2018-03-24T03:27:23.717Z,3.83
2018-03-24T03:29:51.229Z,3.86
2018-03-24T03:32:19.090Z,3.85
2018-03-24T03:34:46.608Z,3.79
2018-03-24T03:37:14.133Z,3.87
2018-03-24T03:39:41.742Z,4.02
2018-03-24T03:42:09.235Z,4.10
2018-03-24T03:44:36.773Z,4.06
2018-03-24T03:47:04.290Z,4.13
2018-03-24T03:49:31.801Z,4.11
2018-03-24T03:51:59.375Z,4.10
2018-03-24T03:54:26.889Z,4.11
2018-03-24T03:56:54.455Z,4.11
2018-03-24T03:59:21.969Z,4.13
2018-03-24T04:01:49.917Z,4.15
2018-03-24T04:04:17.508Z,4.19
2018-03-24T04:06:44.999Z,4.21
2018-03-24T04:09:12.674Z,4.11
2018-03-24T04:11:40.669Z,4.15
2018-03-24T04:14:08.201Z,4.05
2018-03-24T04:16:35.742Z,4.06
2018-03-24T04:19:03.267Z,4.10
2018-03-24T04:21:30.993Z,4.08
2018-03-24T04:23:58.518Z,3.90
2018-03-24T04:26:26.051Z,4.00
2018-03-24T04:28:53.614Z,4.00
2018-03-24T04:31:21.151Z,4.01
2018-03-24T04:33:48.895Z,4.05
2018-03-24T04:36:16.418Z,4.07
2018-03-24T04:38:43.933Z,4.08
2018-03-24T04:41:11.481Z,4.05
2018-03-24T04:43:39.000Z,3.99
2018-03-24T04:46:06.678Z,3.87
2018-03-24T04:48:35.104Z,3.69
2018-03-24T04:51:03.562Z,3.61
2018-03-24T04:53:31.121Z,3.52
2018-03-24T04:55:58.633Z,3.46
2018-03-24T04:58:26.183Z,3.45
2018-03-24T05:00:53.702Z,3.27
2018-03-24T05:03:21.213Z,3.16
2018-03-24T05:05:48.776Z,3.18
2018-03-24T05:08:16.594Z,3.13
2018-03-24T05:10:44.713Z,3.03
2018-03-24T05:13:12.241Z,3.01
2018-03-24T05:15:39.763Z,2.96
2018-03-24T05:18:07.311Z,2.81
2018-03-24T05:20:35.816Z,2.85
2018-03-24T05:23:03.546Z,2.66
2018-03-24T05:25:31.053Z,2.77
2018-03-24T05:27:58.738Z,2.71
2018-03-24T05:30:26.272Z,2.65
2018-03-24T05:32:53.795Z,2.66
2018-03-24T05:35:21.357Z,2.57
2018-03-24T05:37:48.868Z,2.53
2018-03-24T05:40:16.422Z,2.46
2018-03-24T05:42:43.970Z,2.50
2018-03-24T05:45:11.486Z,2.49
2018-03-24T05:47:39.133Z,2.51
2018-03-24T05:50:06.653Z,2.58
2018-03-24T05:52:34.183Z,2.64
2018-03-24T05:55:01.722Z,2.65
2018-03-24T05:57:30.246Z,2.85
2018-03-24T05:59:57.798Z,2.67
2018-03-24T06:02:25.314Z,2.76
2018-03-24T06:04:52.837Z,2.67
2018-03-24T06:07:20.375Z,2.76
2018-03-24T06:09:47.895Z,2.85
2018-03-24T06:12:15.654Z,2.78
2018-03-24T06:14:43.169Z,2.81
2018-03-24T06:17:11.212Z,2.81
2018-03-24T06:19:38.761Z,2.97
2018-03-24T06:22:07.251Z,2.92
2018-03-24T06:24:34.997Z,3.25
2018-03-24T06:27:03.496Z,3.37
2018-03-24T06:29:31.915Z,3.81
2018-03-24T06:32:02.812Z,4.02
2018-03-24T06:34:30.331Z,4.12
2018-03-24T06:37:03.849Z,4.36
2018-03-24T06:39:31.376Z,4.67
2018-03-24T06:41:58.898Z,4.70
2018-03-24T06:44:26.457Z,4.77
2018-03-24T06:46:54.018Z,4.99
2018-03-24T06:49:21.768Z,5.40
2018-03-24T06:51:49.741Z,5.42
2018-03-24T06:54:17.603Z,5.99
2018-03-24T06:56:45.194Z,6.10
2018-03-24T06:59:12.709Z,6.19
2018-03-24T07:01:40.466Z,6.16
2018-03-24T07:04:07.988Z,6.13
2018-03-24T07:06:36.936Z,6.15
2018-03-24T07:09:05.437Z,6.78
2018-03-24T07:11:32.958Z,7.00
2018-03-24T07:14:00.844Z,7.27
2018-03-24T07:16:28.365Z,7.46
2018-03-24T07:18:55.874Z,7.62
2018-03-24T07:21:23.409Z,7.92
2018-03-24T07:23:51.489Z,8.40
2018-03-24T07:26:19.361Z,8.63
2018-03-24T07:28:46.916Z,9.18
2018-03-24T07:31:14.576Z,9.38
2018-03-24T07:33:42.117Z,9.60
2018-03-24T07:36:11.054Z,9.61
2018-03-24T07:38:39.143Z,10.04
2018-03-24T07:41:06.629Z,10.44
2018-03-24T07:43:34.391Z,10.76
2018-03-24T07:46:02.258Z,11.30
2018-03-24T07:48:30.070Z,11.81
2018-03-24T07:50:58.294Z,11.75
2018-03-24T07:53:26.198Z,12.29
2018-03-24T07:55:53.958Z,11.58
2018-03-24T07:58:22.302Z,12.23
2018-03-24T08:00:49.994Z,12.22
2018-03-24T08:03:17.745Z,12.20
2018-03-24T08:05:45.632Z,13.15
2018-03-24T08:08:13.507Z,13.83
2018-03-24T08:10:41.365Z,13.83
2018-03-24T08:13:08.934Z,13.08
2018-03-24T08:15:36.773Z,13.91
2018-03-24T08:18:04.290Z,13.80
2018-03-24T08:20:31.825Z,14.68
2018-03-24T08:22:59.506Z,13.86
2018-03-24T08:25:27.116Z,14.67
2018-03-24T08:27:54.881Z,15.27
2018-03-24T08:30:22.786Z,15.83
2018-03-24T08:32:50.523Z,16.16
2018-03-24T08:35:18.388Z,16.47
2018-03-24T08:37:45.953Z,16.60
2018-03-24T08:40:14.020Z,16.61
2018-03-24T08:42:41.754Z,17.32
2018-03-24T08:45:09.356Z,18.35
2018-03-24T08:47:37.581Z,18.39
2018-03-24T08:50:05.242Z,18.78
2018-03-24T08:52:33.019Z,19.44
2018-03-24T08:55:00.710Z,19.41
2018-03-24T08:57:29.253Z,19.86
2018-03-24T08:59:57.034Z,20.46
2018-03-24T09:02:24.561Z,21.27
2018-03-24T09:04:52.249Z,22.03
2018-03-24T09:07:19.786Z,20.67
2018-03-24T09:09:47.599Z,20.18
2018-03-24T09:12:15.687Z,19.42
2018-03-24T09:14:43.639Z,19.79
2018-03-24T09:17:11.411Z,19.59
2018-03-24T09:19:39.560Z,19.40
2018-03-24T09:22:07.347Z,18.89
2018-03-24T09:24:34.978Z,20.61
2018-03-24T09:27:02.837Z,20.12
2018-03-24T09:29:31.002Z,21.26
2018-03-24T09:31:58.696Z,21.20
2018-03-24T09:34:26.923Z,22.31
2018-03-24T09:36:54.805Z,21.60
2018-03-24T09:39:22.460Z,20.09
2018-03-24T09:41:50.639Z,20.77
2018-03-24T09:44:18.548Z,20.28
2018-03-24T09:46:48.157Z,20.16
2018-03-24T09:49:16.091Z,19.58
2018-03-24T09:51:43.957Z,18.70
2018-03-24T09:54:11.859Z,18.40
2018-03-24T09:56:40.093Z,20.01
2018-03-24T09:59:08.000Z,18.99
2018-03-24T10:01:35.866Z,21.25
2018-03-24T10:04:03.634Z,21.73
2018-03-24T10:06:31.935Z,21.03
2018-03-24T10:08:59.773Z,20.45
2018-03-24T10:11:27.538Z,20.57
2018-03-24T10:13:55.362Z,21.68
2018-03-24T10:16:23.162Z,21.93
2018-03-24T10:18:51.137Z,21.71
2018-03-24T10:24:29.366Z,22.44
2018-03-24T10:26:58.060Z,23.12
2018-03-24T10:29:27.046Z,22.98
2018-03-24T10:31:55.218Z,22.49
2018-03-24T10:34:23.086Z,24.08
2018-03-24T10:36:51.064Z,23.46
2018-03-24T10:39:19.536Z,24.54
2018-03-24T10:41:47.268Z,24.13
2018-03-24T10:44:14.866Z,23.56
2018-03-24T10:46:42.518Z,23.64
2018-03-24T10:49:10.794Z,23.79
2018-03-24T10:51:38.663Z,23.88
2018-03-24T10:54:06.506Z,24.83
2018-03-24T10:56:34.162Z,25.35
2018-03-24T10:59:01.690Z,22.80
2018-03-24T11:01:29.616Z,22.73
2018-03-24T11:03:57.278Z,24.41
2018-03-24T11:06:25.022Z,23.10
2018-03-24T11:08:52.893Z,24.67
2018-03-24T11:11:20.465Z,24.80
2018-03-24T11:13:48.249Z,26.08
2018-03-24T11:16:15.941Z,26.31
2018-03-24T11:18:43.760Z,26.34
2018-03-24T11:21:11.395Z,27.37
2018-03-24T11:23:38.953Z,25.74
2018-03-24T11:26:06.848Z,25.15
2018-03-24T11:28:34.612Z,27.09
2018-03-24T11:31:02.478Z,28.13
2018-03-24T11:33:30.447Z,27.35
2018-03-24T11:35:58.373Z,29.56
2018-03-24T11:38:26.384Z,29.37
2018-03-24T11:40:54.133Z,27.57
2018-03-24T11:43:22.016Z,26.88
2018-03-24T11:45:49.885Z,25.68
2018-03-24T11:48:17.741Z,26.13
2018-03-24T11:50:45.711Z,26.28
2018-03-24T11:53:13.476Z,27.44
2018-03-24T11:55:41.130Z,27.10
2018-03-24T11:58:08.805Z,26.21
2018-03-24T12:00:36.677Z,26.68
2018-03-24T12:03:05.217Z,28.66
2018-03-24T12:05:33.224Z,29.05
2018-03-24T12:08:00.787Z,29.58
2018-03-24T12:10:28.445Z,29.06
2018-03-24T12:12:56.082Z,29.30
2018-03-24T12:15:24.079Z,28.25
2018-03-24T12:17:51.950Z,27.95
2018-03-24T12:20:20.163Z,26.96
2018-03-24T12:22:47.964Z,25.83
2018-03-24T12:25:15.856Z,28.22
2018-03-24T12:27:43.615Z,27.37
2018-03-24T12:30:11.380Z,27.45
2018-03-24T12:32:39.243Z,28.04
2018-03-24T12:35:06.903Z,26.57
2018-03-24T12:37:34.566Z,25.50
2018-03-24T12:40:02.639Z,27.73
2018-03-24T12:42:30.217Z,26.84
2018-03-24T12:44:57.744Z,26.90
2018-03-24T12:47:25.351Z,26.84
2018-03-24T12:49:53.083Z,25.90
2018-03-24T12:52:20.802Z,26.28
2018-03-24T12:54:48.685Z,26.23
2018-03-24T12:57:16.575Z,26.98
2018-03-24T12:59:44.432Z,24.83
2018-03-24T13:02:12.097Z,25.91
2018-03-24T13:04:40.381Z,27.39
2018-03-24T13:07:08.465Z,27.29
2018-03-24T13:09:36.216Z,27.55
2018-03-24T13:12:04.289Z,28.31
2018-03-24T13:14:32.154Z,28.35
2018-03-24T13:17:00.327Z,26.61
2018-03-24T13:19:28.184Z,28.08
2018-03-24T13:21:55.977Z,29.66
2018-03-24T13:24:23.770Z,28.58
2018-03-24T13:26:51.348Z,29.82
2018-03-24T13:29:19.149Z,26.99
2018-03-24T13:31:47.015Z,27.12
2018-03-24T13:34:14.881Z,26.93
2018-03-24T13:36:42.748Z,26.50
2018-03-24T13:39:11.202Z,27.36
2018-03-24T13:41:39.368Z,28.06
2018-03-24T13:44:07.063Z,29.48
2018-03-24T13:46:34.904Z,27.11
2018-03-24T13:49:03.310Z,25.41
2018-03-24T13:51:31.175Z,24.15
2018-03-24T13:53:58.940Z,22.75
2018-03-24T13:56:26.611Z,22.64
2018-03-24T13:58:54.319Z,23.87
2018-03-24T14:01:21.871Z,24.79
2018-03-24T14:03:50.255Z,24.83
2018-03-24T14:06:18.251Z,24.25
2018-03-24T14:08:45.987Z,25.31
2018-03-24T14:11:13.796Z,25.26
2018-03-24T14:13:41.667Z,25.52
2018-03-24T14:16:09.538Z,24.21
2018-03-24T14:18:37.497Z,23.25
2018-03-24T14:21:05.267Z,22.59
2018-03-24T14:23:32.888Z,21.12
2018-03-24T14:26:00.759Z,22.76
2018-03-24T14:28:28.972Z,23.97
2018-03-24T14:30:56.668Z,23.44
2018-03-24T14:33:25.489Z,24.05
2018-03-24T14:35:53.173Z,24.42
2018-03-24T14:38:21.049Z,23.47
2018-03-24T14:40:48.840Z,23.87
2018-03-24T14:43:16.781Z,23.54
2018-03-24T14:45:44.647Z,24.34
2018-03-24T14:48:12.544Z,23.94
2018-03-24T14:50:40.396Z,23.72
2018-03-24T14:53:07.987Z,23.17
2018-03-24T14:55:36.216Z,23.93
2018-03-24T14:58:03.972Z,23.21
2018-03-24T15:00:31.642Z,23.19
2018-03-24T15:02:59.304Z,22.22
2018-03-24T15:05:27.086Z,24.01
2018-03-24T15:07:55.447Z,23.76
2018-03-24T15:10:23.202Z,24.03
2018-03-24T15:12:50.864Z,22.74
2018-03-24T15:15:18.637Z,22.92
2018-03-24T15:17:46.708Z,23.41
2018-03-24T15:20:14.819Z,23.64
2018-03-24T15:22:42.453Z,22.50
2018-03-24T15:25:10.193Z,21.56
2018-03-24T15:27:38.020Z,21.49
2018-03-24T15:30:17.440Z,20.81
2018-03-24T15:32:52.006Z,20.58
2018-03-24T15:35:31.718Z,21.10
2018-03-24T15:37:59.489Z,20.35
2018-03-24T15:40:27.169Z,18.83
2018-03-24T15:42:54.747Z,17.64
2018-03-24T15:45:22.409Z,16.07
2018-03-24T15:47:50.292Z,15.52
2018-03-24T15:50:17.828Z,14.87
2018-03-24T15:52:45.409Z,14.73
2018-03-24T15:55:13.006Z,14.59
2018-03-24T15:57:40.628Z,14.34
2018-03-24T16:00:08.495Z,14.68
2018-03-24T16:02:36.260Z,14.13
2018-03-24T16:05:04.030Z,14.17
2018-03-24T16:07:31.789Z,14.27
2018-03-24T16:09:59.654Z,13.91
2018-03-24T16:12:27.418Z,13.83
2018-03-24T16:14:55.184Z,13.98
2018-03-24T16:17:22.951Z,13.96
2018-03-24T16:19:51.017Z,14.05
2018-03-24T16:22:18.589Z,14.07
2018-03-24T16:24:46.325Z,14.11
2018-03-24T16:27:14.005Z,13.88
2018-03-24T16:29:41.769Z,13.54
2018-03-24T16:32:09.637Z,13.32
2018-03-24T16:34:37.501Z,13.29
2018-03-24T16:37:05.449Z,13.57
2018-03-24T16:39:33.057Z,13.32
2018-03-24T16:42:00.682Z,13.58
2018-03-24T16:44:28.660Z,13.26
2018-03-24T16:46:56.290Z,13.07
2018-03-24T16:49:24.169Z,13.26
2018-03-24T16:51:51.791Z,12.87
2018-03-24T16:54:19.502Z,12.89
2018-03-24T16:56:47.723Z,12.81
2018-03-24T16:59:15.757Z,12.97
2018-03-24T17:01:43.727Z,12.75
2018-03-24T17:04:11.881Z,12.91
2018-03-24T17:06:39.975Z,12.80
2018-03-24T17:09:07.764Z,12.47
2018-03-24T17:11:35.618Z,12.34
2018-03-24T17:14:03.469Z,12.48
2018-03-24T17:16:31.439Z,12.45
2018-03-24T17:18:59.483Z,12.38
2018-03-24T17:21:27.649Z,12.33
2018-03-24T17:23:55.548Z,12.13
2018-03-24T17:26:23.156Z,12.17
2018-03-24T17:28:51.239Z,12.16
2018-03-24T17:31:19.045Z,12.06
2018-03-24T17:33:47.731Z,11.99
2018-03-24T17:36:16.089Z,11.91
2018-03-24T17:38:43.647Z,11.74
2018-03-24T17:41:11.321Z,11.60
2018-03-24T17:43:39.300Z,11.60
2018-03-24T17:46:06.896Z,11.45
2018-03-24T17:48:34.445Z,11.41
2018-03-24T17:51:02.011Z,11.38
2018-03-24T17:53:29.639Z,11.35
2018-03-24T17:55:57.249Z,11.25
2018-03-24T17:58:25.065Z,11.19
2018-03-24T18:00:52.607Z,11.04
2018-03-24T18:03:20.175Z,10.97
2018-03-24T18:05:47.844Z,10.89
2018-03-24T18:08:15.609Z,10.80
2018-03-24T18:10:43.373Z,10.70
2018-03-24T18:13:11.217Z,10.65
2018-03-24T18:15:38.901Z,10.60
2018-03-24T18:18:06.678Z,10.25
2018-03-24T18:20:34.658Z,10.12
2018-03-24T18:23:02.707Z,10.18
2018-03-24T18:25:30.778Z,10.06
2018-03-24T18:27:58.644Z,10.01
2018-03-24T18:30:26.514Z,9.99
2018-03-24T18:32:54.377Z,10.01
2018-03-24T18:35:22.141Z,9.91
2018-03-24T18:37:49.927Z,9.87
2018-03-24T18:40:17.879Z,9.84
2018-03-24T18:42:45.946Z,9.75
2018-03-24T18:45:13.812Z,9.70
2018-03-24T18:47:42.105Z,9.58
2018-03-24T18:50:10.032Z,9.47
2018-03-24T18:52:37.925Z,9.50
2018-03-24T18:55:05.997Z,9.47
2018-03-24T18:57:33.763Z,9.42
2018-03-24T19:00:01.441Z,9.38
2018-03-24T19:02:29.493Z,9.29
2018-03-24T19:04:57.769Z,9.32
2018-03-24T19:07:25.841Z,9.31
2018-03-24T19:09:53.536Z,9.19
2018-03-24T19:12:21.550Z,9.09
2018-03-24T19:14:49.659Z,9.01
2018-03-24T19:17:18.440Z,8.96
2018-03-24T19:19:46.634Z,8.87
2018-03-24T19:22:14.473Z,8.87
2018-03-24T19:24:42.314Z,8.80
2018-03-24T19:27:10.917Z,8.75
2018-03-24T19:29:38.585Z,8.71
2018-03-24T19:32:06.553Z,8.67
2018-03-24T19:34:34.425Z,8.60
2018-03-24T19:37:02.287Z,8.55
2018-03-24T19:39:30.894Z,8.51
2018-03-24T19:41:58.869Z,8.48
2018-03-24T19:44:27.144Z,8.46
2018-03-24T19:46:54.974Z,8.43
2018-03-24T19:49:22.985Z,8.43
2018-03-24T19:51:51.533Z,8.37
2018-03-24T19:54:19.488Z,8.31
2018-03-24T19:56:50.406Z,8.22
2018-03-24T19:59:18.512Z,8.24
2018-03-24T20:01:46.473Z,8.27
2018-03-24T20:04:14.802Z,8.24
2018-03-24T20:06:42.578Z,8.17
2018-03-24T20:09:10.592Z,8.18
2018-03-24T20:11:38.663Z,8.15
2018-03-24T20:14:07.458Z,8.11
2018-03-24T20:16:35.522Z,8.05
2018-03-24T20:19:03.714Z,8.00
2018-03-24T20:21:32.077Z,8.04
2018-03-24T20:23:59.960Z,7.96
2018-03-24T20:26:28.024Z,7.93
2018-03-24T20:31:29.933Z,7.84
2018-03-24T20:33:58.064Z,7.90
2018-03-24T20:36:25.932Z,7.87
2018-03-24T20:38:53.794Z,7.81
2018-03-24T20:41:21.806Z,7.73
2018-03-24T20:43:50.501Z,7.64
2018-03-24T20:46:18.516Z,7.66
2018-03-24T20:48:46.285Z,7.62
2018-03-24T20:51:14.256Z,7.58
2018-03-24T20:53:42.443Z,7.53
2018-03-24T20:56:10.381Z,7.54
2018-03-24T20:58:38.658Z,7.53
2018-03-24T21:01:06.542Z,7.55
2018-03-24T21:03:35.125Z,7.57
2018-03-24T21:06:03.401Z,7.53
2018-03-24T21:08:31.456Z,7.50
2018-03-24T21:11:01.081Z,7.44
2018-03-24T21:13:29.362Z,7.38
2018-03-24T21:15:57.329Z,7.32
2018-03-24T21:18:25.536Z,7.30
2018-03-24T21:20:53.423Z,7.26
2018-03-24T21:23:21.437Z,7.23
2018-03-24T21:25:49.512Z,7.21
2018-03-24T21:28:17.352Z,7.17
2018-03-24T21:30:45.240Z,7.12
2018-03-24T21:33:13.312Z,7.11
2018-03-24T21:35:41.178Z,7.09
2018-03-24T21:38:09.044Z,7.06
2018-03-24T21:40:36.912Z,6.99
2018-03-24T21:43:05.700Z,6.97
2018-03-24T21:45:34.283Z,6.95
2018-03-24T21:48:02.239Z,6.89
2018-03-24T21:50:30.426Z,6.87
2018-03-24T21:52:59.623Z,6.86
2018-03-24T21:55:27.496Z,6.83
2018-03-24T21:57:55.356Z,6.81
2018-03-24T22:00:23.590Z,6.82
2018-03-24T22:02:51.725Z,6.78
2018-03-24T22:05:19.572Z,6.73
2018-03-24T22:07:47.316Z,6.75
2018-03-24T22:10:15.097Z,6.58
2018-03-24T22:12:43.580Z,6.51
2018-03-24T22:15:11.801Z,6.39
2018-03-24T22:17:39.722Z,6.51
2018-03-24T22:20:07.486Z,6.52
2018-03-24T22:22:35.268Z,6.48
2018-03-24T22:25:03.433Z,6.36
2018-03-24T22:27:31.188Z,6.65
2018-03-24T22:29:58.986Z,6.67
2018-03-24T22:32:27.025Z,6.59
2018-03-24T22:34:54.691Z,6.53
2018-03-24T22:37:23.066Z,6.57
2018-03-24T22:39:50.774Z,6.48
2018-03-24T22:42:18.493Z,6.38
2018-03-24T22:44:46.160Z,6.51
2018-03-24T22:47:14.230Z,6.54
2018-03-24T22:49:42.230Z,6.39
2018-03-24T22:52:10.117Z,6.40
2018-03-24T22:54:38.027Z,6.26
2018-03-24T22:57:05.895Z,6.22
2018-03-24T22:59:34.246Z,6.39
2018-03-24T23:02:01.948Z,6.41
2018-03-24T23:04:29.820Z,6.33
2018-03-24T23:06:57.565Z,6.22
2018-03-24T23:09:25.309Z,6.17
2018-03-24T23:11:52.938Z,6.09
2018-03-24T23:14:20.755Z,6.01
2018-03-24T23:16:48.327Z,5.98
2018-03-24T23:19:16.054Z,5.85
2018-03-24T23:21:43.617Z,5.83
2018-03-24T23:24:11.246Z,5.72
2018-03-24T23:26:38.935Z,5.67
2018-03-24T23:29:06.445Z,5.60
2018-03-24T23:31:33.978Z,5.57
2018-03-24T23:34:01.517Z,5.53
2018-03-24T23:36:29.037Z,5.46
2018-03-24T23:38:56.654Z,5.43
2018-03-24T23:41:24.200Z,5.41
2018-03-24T23:43:52.189Z,5.34
2018-03-24T23:46:19.730Z,5.33
2018-03-24T23:48:47.263Z,5.29
2018-03-24T23:51:15.154Z,5.16
2018-03-24T23:53:42.680Z,5.07
2018-03-24T23:56:10.203Z,4.98
2018-03-24T23:58:38.665Z,5.08
